KINDAKUN ROCKS(AUT) current weather conditions

sailwx.info

Wind from 120 at 12 knots gusting 19

Air temperature 5.0° C
Dewpoint 1.0° C

Last reported at 2017-Mar-26 05:00 UTC.
Time now 2017-Mar-26 07:25 UTC

Location: N 53°19' W 132°46'.
View on Google Maps.

See reports from other nearby stations

  
Tides and Currents Weather Stations Pressure Air Temp Water Temp Dewpoint Dewpoint Depression Visibility Wind Speed Wind Dir Waves Ship Positions
date/time (UTC)wind fromknots sea level pressurealtimeterstation pressurevisibilityair tempwater tempwave heightnotes
2017-Mar-26 06:00 130 9 4.6
2017-Mar-26 05:00 120 12 gusting 19 5.0
2017-Mar-26 04:00 150 13 4.6
2017-Mar-26 03:00 130 15 4.9
2017-Mar-26 02:00 140 13 5.0
2017-Mar-26 01:00 160 22 gusting 27 3.6
2017-Mar-26 00:00 150 13 6.0
2017-Mar-25 23:00 160 15 6.0
2017-Mar-25 22:00 150 11 5.3
2017-Mar-25 21:00 190 12 6.0
2017-Mar-25 20:00 180 13 5.6
2017-Mar-25 19:00 120 1 5.0
2017-Mar-25 18:00 110 2 4.0
2017-Mar-25 17:00 300 6 3.4
2017-Mar-25 16:00 190 4 4.9
2017-Mar-25 15:00 230 13 4.9
2017-Mar-25 14:00 270 13 5.2
2017-Mar-25 13:00 270 14 5.1
2017-Mar-25 12:00 260 15 gusting 21 5.4
2017-Mar-25 11:00 270 21 5.3
2017-Mar-25 10:00 280 20 5.0
2017-Mar-25 09:00 290 24 5.0
2017-Mar-25 08:00 290 22 4.9
2017-Mar-25 07:00 300 22 4.7
2017-Mar-25 06:00 290 31 gusting 35 4.0
2017-Mar-25 05:00 290 29 gusting 34 5.0
2017-Mar-25 04:00 210 6 6.5
2017-Mar-25 03:00 170 8 7.0
2017-Mar-25 02:00 170 8 7.0
2017-Mar-25 01:00 170 9 7.1
2017-Mar-25 00:00 160 8 7.5
2017-Mar-24 23:00 170 9 7.0
2017-Mar-24 22:00 200 6 7.0
2017-Mar-24 21:00 7.9
2017-Mar-24 20:00 8.0
2017-Mar-24 19:00 8.0
2017-Mar-24 18:00 110 5 8.0
2017-Mar-24 17:00 040 2 7.0
2017-Mar-24 16:00 110 7 6.0
2017-Mar-24 15:00 090 6 6.3
2017-Mar-24 14:00 110 7 5.8
2017-Mar-24 13:00 120 8 5.9
2017-Mar-24 12:00 100 5 6.2
2017-Mar-24 11:00 090 6 7.0
2017-Mar-24 10:00 090 14 gusting 20 7.2
2017-Mar-24 09:00 090 19 gusting 28 7.0
2017-Mar-24 08:00 080 15 gusting 24 6.7
2017-Mar-24 07:00 090 18 gusting 26 5.5